Time;durP1;ratioP1;P1;durP2;ratioP2;P2;SDS_P1;SDS_P2;PMS_P1;PMS_P2;Temp;Humidity;BMP_temperature;BMP_pressure;BME280_temperature;BME280_humidity;BME280_pressure;Samples;Min_cycle;Max_cycle;Signal;HPM_P1;HPM_P2
2021/10/29 00:01:42;;;;;;;;;;;4.00;99.90;;;2.94;100.00;95645.75;10522941;28;1923;-73
2021/10/29 00:06:45;;;;;;;;;;;4.00;99.90;;;2.86;100.00;95635.44;10515718;28;1951;-74
2021/10/29 00:11:48;;;;;;;;;;;3.90;99.90;;;2.99;100.00;95653.84;10527020;28;1947;-74
2021/10/29 00:17:06;;;;;;;;;;;4.00;99.90;;;2.96;100.00;95649.78;10518904;28;1909;-73
2021/10/29 00:22:09;;;;;;;;;;;4.10;99.90;;;3.02;100.00;95645.41;10527095;28;2073;-74
2021/10/29 00:27:12;;;;;;;;;;;4.00;99.90;;;3.10;100.00;95642.41;10525849;28;2137;-74
2021/10/29 00:32:15;;;;;;;;;;;4.20;99.90;;;3.02;100.00;95632.13;10523937;28;1927;-74
2021/10/29 00:37:18;;;;;;;;;;;4.10;99.90;;;2.96;100.00;95636.50;10510699;28;1985;-74
2021/10/29 00:42:21;;;;;;;;;;;4.10;99.90;;;2.88;100.00;95641.34;10519573;28;1943;-74
2021/10/29 00:47:24;;;;;;;;;;;4.00;99.90;;;2.75;100.00;95636.25;10523732;28;2008;-74
2021/10/29 00:52:26;;;;;;;;;;;4.00;99.90;;;2.75;100.00;95633.59;10521815;28;1841;-73
2021/10/29 00:57:29;;;;;;;;;;;4.00;99.90;;;2.77;100.00;95628.84;10524356;28;1909;-74
2021/10/29 01:02:32;;;;;;;;;;;3.90;99.90;;;2.65;100.00;95620.88;10526193;28;1912;-74
2021/10/29 01:07:35;;;;;;;;;;;3.90;99.90;;;2.67;100.00;95627.59;10524568;28;1921;-74
2021/10/29 01:12:38;;;;;;;;;;;3.90;99.90;;;2.82;100.00;95610.41;10521516;28;1935;-74
2021/10/29 01:18:01;;;;;;;;;;;3.90;99.90;;;3.05;100.00;95613.06;10529727;28;1965;-74
2021/10/29 01:23:24;;;;;;;;;;;4.10;99.90;;;2.78;100.00;95601.28;10521259;28;1984;-74
2021/10/29 01:28:27;;;;;;;;;;;4.10;99.90;;;2.78;100.00;95596.78;10534141;28;1943;-73
2021/10/29 01:33:30;;;;;;;;;;;4.00;99.90;;;2.59;100.00;95588.09;10540690;28;1900;-73
2021/10/29 01:38:33;;;;;;;;;;;3.80;99.90;;;2.52;100.00;95581.25;10543190;28;2035;-73
2021/10/29 01:43:36;;;;;;;;;;;3.80;99.90;;;2.44;100.00;95569.94;10534945;28;1994;-73
2021/10/29 01:48:39;;;;;;;;;;;3.60;99.90;;;2.47;100.00;95575.81;10529885;28;1932;-74
2021/10/29 01:53:42;;;;;;;;;;;3.60;99.90;;;2.51;100.00;95559.22;10527612;28;2029;-73
2021/10/29 01:58:45;;;;;;;;;;;3.60;99.90;;;2.20;100.00;95556.84;10524962;28;1950;-73
2021/10/29 02:03:49;;;;;;;;;;;3.60;99.90;;;2.23;100.00;95554.56;10528917;28;1999;-73
2021/10/29 02:08:51;;;;;;;;;;;3.50;99.90;;;2.22;100.00;95554.75;10531186;28;1924;-73
2021/10/29 02:13:54;;;;;;;;;;;3.30;99.90;;;2.26;100.00;95553.28;10528060;28;2047;-73
2021/10/29 02:18:57;;;;;;;;;;;3.40;99.90;;;2.14;100.00;95534.69;10522750;28;1978;-73
2021/10/29 02:24:00;;;;;;;;;;;3.40;99.90;;;2.26;100.00;95532.06;10528902;28;2022;-73
2021/10/29 02:29:03;;;;;;;;;;;3.40;99.90;;;2.32;100.00;95531.97;10521429;28;2021;-74
2021/10/29 02:34:06;;;;;;;;;;;3.40;99.90;;;2.16;100.00;95528.16;10529545;28;2025;-73
2021/10/29 02:39:09;;;;;;;;;;;3.50;99.90;;;2.16;100.00;95538.75;10522197;28;2408;-73
2021/10/29 02:44:12;;;;;;;;;;;3.40;99.90;;;2.28;100.00;95535.28;10524821;28;1888;-74
2021/10/29 02:49:15;;;;;;;;;;;3.40;99.90;;;2.10;100.00;95539.66;10519402;28;2003;-73
2021/10/29 02:54:18;;;;;;;;;;;3.50;99.90;;;2.29;100.00;95531.59;10522776;28;1998;-74
2021/10/29 02:59:21;;;;;;;;;;;3.40;99.90;;;2.02;100.00;95532.00;10525140;28;1930;-73
2021/10/29 03:04:23;;;;;;;;;;;3.30;99.90;;;1.99;100.00;95524.50;10521898;28;2222;-74
2021/10/29 03:09:26;;;;;;;;;;;3.30;99.90;;;1.67;100.00;95515.16;10528710;28;1920;-73
2021/10/29 03:14:30;;;;;;;;;;;;;;;1.95;100.00;95523.34;10551738;28;1918;-73
2021/10/29 03:19:33;;;;;;;;;;;;;;;1.95;100.00;95525.19;10545250;28;1989;-74
2021/10/29 03:24:36;;;;;;;;;;;3.10;99.90;;;2.02;100.00;95520.59;10525194;28;1974;-74
2021/10/29 03:29:39;;;;;;;;;;;3.20;99.90;;;1.85;100.00;95515.13;10532708;28;1900;-74
2021/10/29 03:34:42;;;;;;;;;;;3.00;99.90;;;1.71;100.00;95505.72;10560868;28;2021;-73
2021/10/29 03:39:52;;;;;;;;;;;3.00;99.90;;;1.90;100.00;95499.34;10524927;28;1928;-74
2021/10/29 03:44:59;;;;;;;;;;;3.00;99.90;;;2.01;100.00;95493.28;10521303;28;2179;-73
2021/10/29 03:50:14;;;;;;;;;;;3.10;99.90;;;2.02;100.00;95489.56;10518725;28;2016;-74
2021/10/29 03:55:17;;;;;;;;;;;3.20;99.90;;;2.00;100.00;95482.91;10514573;28;2083;-74
2021/10/29 04:00:25;;;;;;;;;;;3.20;99.90;;;1.93;100.00;95484.84;10524183;28;2003;-74
2021/10/29 04:05:31;;;;;;;;;;;3.10;99.90;;;1.88;100.00;95488.16;10521011;28;1833;-73
2021/10/29 04:10:33;;;;;;;;;;;3.00;99.90;;;1.84;100.00;95474.53;10525375;28;1919;-73
2021/10/29 04:15:37;;;;;;;;;;;3.00;99.90;;;1.88;100.00;95470.41;10522080;28;1873;-75
2021/10/29 04:21:00;;;;;;;;;;;3.00;99.90;;;1.90;100.00;95475.47;10518790;28;2016;-74
2021/10/29 04:26:23;;;;;;;;;;;3.00;99.90;;;2.03;100.00;95480.59;10522058;28;1876;-74
2021/10/29 04:31:49;;;;;;;;;;;3.10;99.90;;;1.98;100.00;95485.78;10522050;28;1956;-75
2021/10/29 04:37:12;;;;;;;;;;;3.20;99.90;;;1.98;100.00;95477.84;10519330;28;1830;-74
2021/10/29 04:42:17;;;;;;;;;;;3.20;99.90;;;1.99;100.00;95468.84;10514353;28;2039;-74
2021/10/29 04:47:20;;;;;;;;;;;3.20;99.90;;;1.98;100.00;95466.41;10524451;28;1971;-74
2021/10/29 04:52:22;;;;;;;;;;;3.20;99.90;;;2.00;100.00;95454.53;10526243;28;1833;-75
2021/10/29 04:57:25;;;;;;;;;;;3.10;99.90;;;2.00;100.00;95449.25;10529955;28;1902;-75
2021/10/29 05:02:28;;;;;;;;;;;3.10;99.90;;;2.17;100.00;95450.19;10531347;28;1917;-75
2021/10/29 05:07:31;;;;;;;;;;;3.20;99.90;;;2.22;100.00;95446.03;10526799;28;1857;-74
2021/10/29 05:12:34;;;;;;;;;;;3.30;99.90;;;2.23;100.00;95435.22;10527819;28;1900;-75
2021/10/29 05:17:37;;;;;;;;;;;3.30;99.90;;;2.16;100.00;95439.81;10526167;28;2008;-74
2021/10/29 05:22:40;;;;;;;;;;;3.30;99.90;;;2.17;100.00;95434.28;10531790;28;2079;-73
2021/10/29 05:27:43;;;;;;;;;;;3.30;99.90;;;2.29;100.00;95444.09;10530623;28;1920;-76
2021/10/29 05:32:46;;;;;;;;;;;3.40;99.90;;;2.45;100.00;95440.75;10528862;28;2071;-76
2021/10/29 05:37:49;;;;;;;;;;;3.40;99.90;;;2.27;100.00;95439.00;10529313;28;1893;-75
2021/10/29 05:42:52;;;;;;;;;;;3.50;99.90;;;2.18;100.00;95437.75;10527223;28;1977;-74
2021/10/29 05:48:00;;;;;;;;;;;3.30;99.90;;;2.30;100.00;95443.06;10529082;28;1928;-75
2021/10/29 05:53:05;;;;;;;;;;;3.30;99.90;;;2.36;100.00;95444.81;10526855;28;1936;-75
2021/10/29 05:58:08;;;;;;;;;;;3.40;99.90;;;2.44;100.00;95444.44;10527508;28;2189;-75
2021/10/29 06:03:12;;;;;;;;;;;3.50;99.90;;;2.43;100.00;95437.53;10527098;28;1914;-75
2021/10/29 06:08:15;;;;;;;;;;;3.50;99.90;;;2.62;100.00;95460.25;10526214;28;2094;-74
2021/10/29 06:13:18;;;;;;;;;;;3.60;99.90;;;2.61;100.00;95455.19;10527367;28;1674;-74
2021/10/29 06:18:24;;;;;;;;;;;3.70;99.90;;;2.81;100.00;95452.19;10525417;28;2130;-75
2021/10/29 06:23:34;;;;;;;;;;;3.70;99.90;;;2.72;100.00;95447.19;10531616;28;1984;-75
2021/10/29 06:28:37;;;;;;;;;;;3.80;99.90;;;2.46;100.00;95452.16;10531659;28;1893;-74
2021/10/29 06:33:41;;;;;;;;;;;3.70;99.90;;;2.59;100.00;95457.25;10553052;28;1947;-78
2021/10/29 06:38:44;;;;;;;;;;;3.70;99.90;;;2.48;100.00;95456.19;10546913;28;2142;-73
2021/10/29 06:43:52;;;;;;;;;;;3.70;99.90;;;2.48;100.00;95466.00;10540577;28;1921;-75
2021/10/29 06:49:08;;;;;;;;;;;3.60;99.90;;;2.76;100.00;95462.69;10524088;28;1994;-74
2021/10/29 06:59:43;;;;;;;;;;;3.90;99.90;;;2.52;100.00;95473.28;10514464;28;2010;-74
2021/10/29 07:42:17;;;;;;;;;;;4.30;99.90;;;3.65;100.00;95469.28;10516503;28;1909;-75
2021/10/29 07:47:20;;;;;;;;;;;4.50;99.90;;;4.00;100.00;95473.63;10536746;28;1874;-75
2021/10/29 07:52:23;;;;;;;;;;;4.70;99.90;;;3.76;100.00;95480.91;10524520;28;1774;-76
2021/10/29 07:57:26;;;;;;;;;;;4.80;99.90;;;3.91;100.00;95488.34;10524410;28;1992;-75
2021/10/29 08:02:29;;;;;;;;;;;4.80;99.90;;;4.15;100.00;95487.19;10522234;28;1916;-76
2021/10/29 08:07:32;;;;;;;;;;;4.90;99.90;;;4.15;100.00;95495.19;10523300;28;1849;-75
2021/10/29 08:12:35;;;;;;;;;;;4.90;99.90;;;3.66;100.00;95496.66;10524563;28;1901;-75
2021/10/29 08:17:38;;;;;;;;;;;4.90;99.90;;;3.82;100.00;95492.44;10525402;28;1879;-73
2021/10/29 08:22:41;;;;;;;;;;;4.70;99.90;;;4.17;100.00;95489.63;10547279;28;1890;-75
2021/10/29 08:27:45;;;;;;;;;;;5.00;99.90;;;3.69;100.00;95496.19;10549199;28;1865;-72
2021/10/29 08:32:49;;;;;;;;;;;5.00;99.90;;;3.94;100.00;95493.19;10548032;28;2181;-76
2021/10/29 08:37:52;;;;;;;;;;;4.90;99.90;;;4.62;100.00;95492.22;10574226;28;1656;-76
2021/10/29 08:42:55;;;;;;;;;;;5.20;99.90;;;4.87;100.00;95489.94;10560686;28;1897;-78
2021/10/29 08:47:58;;;;;;;;;;;5.60;99.90;;;4.85;100.00;95486.72;10541313;28;1924;-76
2021/10/29 08:53:01;;;;;;;;;;;5.80;99.90;;;4.95;100.00;95491.38;10538411;28;1948;-78
2021/10/29 08:58:08;;;;;;;;;;;5.80;99.90;;;5.31;100.00;95479.34;10531916;28;1978;-77
2021/10/29 09:03:17;;;;;;;;;;;6.00;99.90;;;5.47;100.00;95487.50;10523933;28;1910;-76
2021/10/29 09:08:27;;;;;;;;;;;6.30;99.90;;;5.56;100.00;95470.03;10561354;28;1877;-78
2021/10/29 09:34:51;;;;;;;;;;;7.20;99.90;;;6.61;93.75;95466.00;10500189;28;3618;-72
2021/10/29 09:39:54;;;;;;;;;;;7.40;99.90;;;6.53;93.20;95463.00;10511345;28;3264;-72
2021/10/29 09:44:57;;;;;;;;;;;7.50;99.90;;;5.82;96.79;95458.59;10526272;28;2303;-71
2021/10/29 09:50:06;;;;;;;;;;;7.20;99.90;;;6.03;97.76;95459.63;10517314;28;1953;-72
2021/10/29 09:55:18;;;;;;;;;;;7.00;99.90;;;6.25;96.64;95446.22;10515962;28;2275;-72
2021/10/29 10:00:22;;;;;;;;;;;7.10;99.90;;;6.19;96.59;95456.06;10528428;28;1906;-72
2021/10/29 10:05:25;;;;;;;;;;;7.20;99.90;;;6.33;95.49;95443.09;10520751;28;1810;-73
2021/10/29 10:10:28;;;;;;;;;;;7.30;99.90;;;6.53;94.83;95452.31;10522941;28;2416;-78
2021/10/29 10:15:31;;;;;;;;;;;7.40;99.90;;;7.18;91.37;95446.56;10519249;28;1761;-75
2021/10/29 10:20:35;;;;;;;;;;;7.70;99.90;;;7.67;87.05;95440.09;10539080;28;1901;-75
2021/10/29 10:25:48;;;;;;;;;;;8.20;99.90;;;7.11;88.88;95432.63;10538094;28;1909;-76
2021/10/29 10:31:09;;;;;;;;;;;8.10;99.90;;;6.38;93.76;95445.00;10521949;28;1940;-74
2021/10/29 10:41:52;;;;;;;;;;;7.50;99.90;;;6.07;96.45;95438.59;10513902;28;1958;-75
2021/10/29 10:46:55;;;;;;;;;;;7.30;99.90;;;5.77;100.00;95436.38;10525935;28;1944;-78
2021/10/29 10:51:58;;;;;;;;;;;6.90;99.90;;;5.67;100.00;95434.44;10535615;28;1840;-79
2021/10/29 10:57:10;;;;;;;;;;;6.80;99.90;;;5.57;100.00;95429.78;10529937;28;1927;-79
2021/10/29 11:12:50;;;;;;;;;;;6.80;99.90;;;5.79;100.00;95403.09;10532720;28;2448;-78
2021/10/29 11:17:53;;;;;;;;;;;6.80;99.90;;;5.89;100.00;95411.19;10529978;28;1894;-78
2021/10/29 11:22:56;;;;;;;;;;;6.80;99.90;;;5.79;100.00;95392.44;10535052;28;1912;-79
2021/10/29 11:27:59;;;;;;;;;;;6.80;99.90;;;5.99;100.00;95393.69;10540466;28;1915;-79
2021/10/29 11:33:02;;;;;;;;;;;7.00;99.90;;;6.21;99.51;95381.84;10545829;28;2039;-78
2021/10/29 11:38:05;;;;;;;;;;;7.10;99.90;;;6.27;98.58;95372.03;10545001;28;1904;-79
2021/10/29 11:43:08;;;;;;;;;;;7.20;99.90;;;6.45;98.68;95360.16;10529719;28;1907;-79
2021/10/29 11:48:11;;;;;;;;;;;7.30;99.90;;;6.55;98.33;95370.06;10543241;28;1868;-79
2021/10/29 11:53:17;;;;;;;;;;;7.50;99.90;;;6.44;99.44;95367.34;10530606;28;1915;-79
2021/10/29 11:58:23;;;;;;;;;;;7.60;99.90;;;6.64;97.95;95349.84;10526243;28;2007;-79
2021/10/29 12:08:46;;;;;;;;;;;7.60;99.90;;;6.59;97.25;95349.81;10539624;28;2067;-79
2021/10/29 12:13:49;;;;;;;;;;;7.60;99.90;;;6.60;96.55;95330.03;10542620;28;2051;-79
2021/10/29 12:18:55;;;;;;;;;;;7.70;99.90;;;6.53;97.76;95334.81;10538471;28;2094;-78
2021/10/29 12:24:00;;;;;;;;;;;7.70;99.90;;;6.84;96.15;95328.56;10545262;28;2305;-78
2021/10/29 12:29:10;;;;;;;;;;;7.70;99.90;;;6.96;96.15;95328.34;10530914;28;2145;-79
2021/10/29 12:34:31;;;;;;;;;;;7.90;99.90;;;6.94;97.69;95309.91;10531680;28;2127;-77
2021/10/29 13:06:16;;;;;;;;;;;8.30;99.90;;;7.08;97.23;95290.72;10527676;28;2252;-78
2021/10/29 13:11:20;;;;;;;;;;;8.20;99.90;;;7.15;97.43;95285.94;10550052;28;1893;-79
2021/10/29 13:16:23;;;;;;;;;;;8.20;99.90;;;7.19;96.42;95276.28;10547471;28;1885;-78
2021/10/29 13:27:07;;;;;;;;;;;8.30;99.90;;;7.28;96.17;95280.06;10557089;28;1897;-78
2021/10/29 13:37:46;;;;;;;;;;;8.40;99.90;;;7.28;96.13;95270.19;10546604;28;1931;-78
2021/10/29 13:54:10;;;;;;;;;;;8.40;99.90;;;7.51;95.25;95263.53;10437453;28;1902;-79
2021/10/29 13:59:36;;;;;;;;;;;8.50;99.90;;;7.43;95.66;95263.25;10515808;28;1909;-78
2021/10/29 14:32:02;;;;;;;;;;;8.40;99.90;;;6.78;100.00;95271.63;10540919;28;1936;-79
2021/10/29 14:37:13;;;;;;;;;;;8.20;99.90;;;6.62;100.00;95274.53;10548969;28;1413;-78
2021/10/29 14:42:23;;;;;;;;;;;7.90;99.90;;;6.41;100.00;95273.59;10542328;28;1894;-78
2021/10/29 14:47:41;;;;;;;;;;;7.70;99.90;;;6.28;100.00;95277.53;10542588;28;1782;-78
2021/10/29 14:53:08;;;;;;;;;;;7.60;99.90;;;6.15;100.00;95272.66;10543418;28;1917;-78
2021/10/29 15:25:34;;;;;;;;;;;7.10;99.90;;;5.74;100.00;95296.38;10545438;28;1890;-79
2021/10/29 15:30:41;;;;;;;;;;;7.00;99.90;;;5.56;100.00;95294.06;10542187;28;1880;-77
2021/10/29 15:41:22;;;;;;;;;;;6.70;99.90;;;5.16;100.00;95300.63;10527993;28;2010;-79
2021/10/29 15:46:32;;;;;;;;;;;6.50;99.90;;;5.00;100.00;95294.31;10519538;28;2218;-77
2021/10/29 15:51:36;;;;;;;;;;;6.30;99.90;;;4.86;100.00;95299.22;10536217;28;1975;-78
2021/10/29 15:56:41;;;;;;;;;;;6.20;99.90;;;4.71;100.00;95299.06;10549093;28;1884;-78
2021/10/29 16:01:49;;;;;;;;;;;6.00;99.90;;;4.74;100.00;95293.22;10562178;28;1878;-78
2021/10/29 16:17:42;;;;;;;;;;;5.80;99.90;;;4.62;100.00;95303.19;10531970;28;1694;-79
2021/10/29 16:22:45;;;;;;;;;;;5.80;99.90;;;4.69;100.00;95311.81;10520013;28;1996;-77
2021/10/29 16:27:54;;;;;;;;;;;5.90;99.90;;;4.73;100.00;95312.13;10533540;28;2419;-78
2021/10/29 16:33:23;;;;;;;;;;;5.90;99.90;;;4.86;100.00;95301.91;10530497;28;1857;-78
2021/10/29 16:38:26;;;;;;;;;;;6.00;99.90;;;4.74;100.00;95298.56;10523152;28;1947;-79
2021/10/29 16:43:34;;;;;;;;;;;5.90;99.90;;;4.53;100.00;95300.16;10529799;28;2459;-77
2021/10/29 16:48:36;;;;;;;;;;;5.80;99.90;;;4.47;100.00;95303.00;10532354;28;1801;-79
2021/10/29 16:53:40;;;;;;;;;;;5.80;99.90;;;4.35;100.00;95295.13;10549561;28;1908;-78
2021/10/29 16:58:43;;;;;;;;;;;5.70;99.90;;;4.31;100.00;95294.81;10542282;28;1927;-78
2021/10/29 17:03:46;;;;;;;;;;;5.60;99.90;;;4.27;100.00;95293.72;10533412;28;1925;-78
2021/10/29 17:08:49;;;;;;;;;;;5.60;99.90;;;4.29;100.00;95283.63;10549163;28;1909;-78
2021/10/29 17:13:54;;;;;;;;;;;5.50;99.90;;;4.30;100.00;95298.53;10544199;28;1936;-78
2021/10/29 17:18:56;;;;;;;;;;;5.50;99.90;;;4.44;100.00;95301.63;10550198;28;2010;-77
2021/10/29 17:23:59;;;;;;;;;;;5.60;99.90;;;4.46;100.00;95299.56;10546755;28;2067;-77
2021/10/29 17:29:02;;;;;;;;;;;5.60;99.90;;;4.43;100.00;95301.88;10548724;28;1951;-78
2021/10/29 17:34:05;;;;;;;;;;;5.60;99.90;;;4.40;100.00;95311.19;10539692;28;1943;-77
2021/10/29 17:39:08;;;;;;;;;;;5.60;99.90;;;4.33;100.00;95319.34;10540282;28;1973;-78
2021/10/29 17:44:12;;;;;;;;;;;5.60;99.90;;;4.51;100.00;95315.56;10541376;28;2541;-78
2021/10/29 17:49:16;;;;;;;;;;;5.60;99.90;;;4.62;100.00;95332.47;10543992;28;1892;-77
2021/10/29 17:54:20;;;;;;;;;;;5.70;99.90;;;4.58;100.00;95332.19;10533752;28;2113;-77
2021/10/29 17:59:24;;;;;;;;;;;5.70;99.90;;;4.64;100.00;95324.25;10528387;28;1643;-77
2021/10/29 18:04:27;;;;;;;;;;;5.70;99.90;;;4.60;100.00;95329.28;10538653;28;1905;-78
2021/10/29 18:09:31;;;;;;;;;;;5.70;99.90;;;4.52;100.00;95337.69;10542661;28;1734;-77
2021/10/29 18:14:35;;;;;;;;;;;5.70;99.90;;;4.57;100.00;95321.75;10535382;28;1468;-78
2021/10/29 18:19:37;;;;;;;;;;;5.70;99.90;;;4.50;100.00;95334.44;10538209;28;1397;-78
2021/10/29 18:24:40;;;;;;;;;;;5.80;99.90;;;4.58;100.00;95318.03;10546894;28;1895;-77
2021/10/29 18:29:44;;;;;;;;;;;5.70;99.90;;;4.58;100.00;95316.22;10549284;28;1415;-77
2021/10/29 18:34:49;;;;;;;;;;;5.70;99.90;;;4.61;100.00;95314.91;10535455;28;1424;-77
2021/10/29 18:39:53;;;;;;;;;;;5.70;99.90;;;4.58;100.00;95323.38;10537282;28;1352;-76
2021/10/29 18:44:56;;;;;;;;;;;5.70;99.90;;;4.60;100.00;95329.28;10559777;28;1894;-77
2021/10/29 18:49:59;;;;;;;;;;;5.70;99.90;;;4.68;100.00;95320.84;10539268;28;1372;-78
2021/10/29 18:55:02;;;;;;;;;;;5.70;99.90;;;4.59;100.00;95330.31;10540424;28;1751;-78
2021/10/29 19:00:05;;;;;;;;;;;5.90;99.90;;;4.71;100.00;95332.84;10532577;28;1423;-76
2021/10/29 19:05:08;;;;;;;;;;;5.80;99.90;;;4.48;100.00;95331.22;10529617;28;1922;-77
2021/10/29 19:10:31;;;;;;;;;;;5.70;99.90;;;4.48;100.00;95324.06;10546050;28;1193;-78
2021/10/29 19:15:54;;;;;;;;;;;5.60;99.90;;;4.44;100.00;95330.09;10536377;28;1714;-77
2021/10/29 19:21:17;;;;;;;;;;;5.60;99.90;;;4.64;100.00;95334.88;10540495;28;1905;-78
2021/10/29 19:26:40;;;;;;;;;;;5.60;99.90;;;4.67;100.00;95350.38;10573387;28;1764;-76
2021/10/29 19:32:05;;;;;;;;;;;5.70;99.90;;;4.49;100.00;95357.59;10570383;28;1616;-78
2021/10/29 19:37:37;;;;;;;;;;;5.70;99.90;;;4.35;100.00;95351.03;10560731;28;1933;-79
2021/10/29 19:42:59;;;;;;;;;;;5.50;99.90;;;4.60;100.00;95339.91;10535622;28;1994;-78
2021/10/29 19:48:21;;;;;;;;;;;5.60;99.90;;;4.50;100.00;95339.78;10533173;28;1943;-77
2021/10/29 19:53:42;;;;;;;;;;;5.70;99.90;;;4.45;100.00;95355.66;10531895;28;1916;-77
2021/10/29 19:59:07;;;;;;;;;;;5.60;99.90;;;4.59;100.00;95343.63;10511442;28;3509;-77
2021/10/29 20:04:28;;;;;;;;;;;5.60;99.90;;;4.51;100.00;95344.03;10535463;28;2007;-77
2021/10/29 20:09:31;;;;;;;;;;;5.70;99.90;;;4.38;100.00;95337.22;10565735;28;1624;-77
2021/10/29 20:14:34;;;;;;;;;;;5.60;99.90;;;4.45;100.00;95353.81;10543657;28;2252;-78
2021/10/29 20:19:37;;;;;;;;;;;5.60;99.90;;;4.61;100.00;95346.84;10530825;28;1945;-77
2021/10/29 20:24:40;;;;;;;;;;;5.60;99.90;;;4.48;100.00;95348.00;10539344;28;1910;-77
2021/10/29 20:29:43;;;;;;;;;;;5.70;99.90;;;4.55;100.00;95340.66;10539040;28;2312;-78
2021/10/29 20:34:46;;;;;;;;;;;5.60;99.90;;;4.64;100.00;95351.66;10533418;28;1888;-77
2021/10/29 20:39:49;;;;;;;;;;;5.70;99.90;;;4.47;100.00;95351.72;10537263;28;1905;-78
2021/10/29 20:44:51;;;;;;;;;;;5.70;99.90;;;4.53;100.00;95349.94;10539622;28;1943;-77
2021/10/29 20:49:54;;;;;;;;;;;5.70;99.90;;;4.42;100.00;95340.19;10535760;28;1994;-78
2021/10/29 20:54:57;;;;;;;;;;;5.60;99.90;;;4.30;100.00;95341.09;10541411;28;1929;-78
2021/10/29 21:00:00;;;;;;;;;;;5.50;99.90;;;4.28;100.00;95343.22;10526618;28;2355;-77
2021/10/29 21:05:03;;;;;;;;;;;5.60;99.90;;;4.29;100.00;95339.50;10530211;28;1923;-77
2021/10/29 21:10:08;;;;;;;;;;;5.50;99.90;;;4.20;100.00;95327.66;10529984;28;2301;-77
2021/10/29 21:15:10;;;;;;;;;;;5.40;99.90;;;4.29;100.00;95323.53;10537879;28;1494;-77
2021/10/29 21:20:13;;;;;;;;;;;5.40;99.90;;;4.34;100.00;95325.47;10541902;28;1591;-78
2021/10/29 21:25:16;;;;;;;;;;;5.40;99.90;;;4.37;100.00;95338.25;10536322;28;1902;-77
2021/10/29 21:30:19;;;;;;;;;;;5.40;99.90;;;4.31;100.00;95326.75;10547508;28;1423;-77
2021/10/29 21:35:22;;;;;;;;;;;5.50;99.90;;;4.22;100.00;95328.22;10536208;28;1635;-77
2021/10/29 21:40:25;;;;;;;;;;;5.40;99.90;;;4.13;100.00;95324.34;10535093;28;2184;-77
2021/10/29 21:45:29;;;;;;;;;;;5.40;99.90;;;3.76;100.00;95308.91;10526002;28;1985;-77
2021/10/29 21:50:32;;;;;;;;;;;5.20;99.90;;;3.63;100.00;95325.19;10537250;28;1166;-77
2021/10/29 21:55:35;;;;;;;;;;;5.00;99.90;;;3.93;100.00;95313.41;10530104;28;1582;-77
2021/10/29 22:00:39;;;;;;;;;;;5.00;99.90;;;3.85;100.00;95300.53;10525634;28;2111;-77
2021/10/29 22:05:42;;;;;;;;;;;5.00;99.90;;;4.02;100.00;95318.09;10510268;28;2118;-77
2021/10/29 22:10:49;;;;;;;;;;;5.10;99.90;;;4.03;100.00;95317.03;10524949;28;1897;-77
2021/10/29 22:15:52;;;;;;;;;;;5.10;99.90;;;3.97;100.00;95317.22;10518224;28;1942;-77
2021/10/29 22:20:55;;;;;;;;;;;5.10;99.90;;;3.94;100.00;95326.47;10525391;28;2052;-77
2021/10/29 22:26:00;;;;;;;;;;;5.10;99.90;;;3.95;100.00;95321.97;10526357;28;2149;-76
2021/10/29 22:31:03;;;;;;;;;;;5.10;99.90;;;3.97;100.00;95325.19;10526441;28;2271;-77
2021/10/29 22:36:06;;;;;;;;;;;5.10;99.90;;;3.90;100.00;95297.97;10519123;28;2050;-77
2021/10/29 22:41:09;;;;;;;;;;;5.00;99.90;;;3.98;100.00;95313.50;10531469;28;2399;-78
2021/10/29 22:46:12;;;;;;;;;;;5.10;99.90;;;3.94;100.00;95304.38;10523495;28;1943;-77
2021/10/29 22:51:15;;;;;;;;;;;5.10;99.90;;;3.99;100.00;95317.75;10527063;28;1412;-77
2021/10/29 22:56:18;;;;;;;;;;;5.00;99.90;;;4.07;100.00;95312.84;10528347;28;1214;-78
2021/10/29 23:01:21;;;;;;;;;;;5.20;99.90;;;3.85;100.00;95319.16;10524589;28;1904;-76
2021/10/29 23:06:24;;;;;;;;;;;5.00;99.90;;;3.77;100.00;95321.16;10525219;28;1990;-77
2021/10/29 23:11:26;;;;;;;;;;;4.90;99.90;;;3.74;100.00;95316.31;10526215;28;2034;-76
2021/10/29 23:16:29;;;;;;;;;;;4.90;99.90;;;3.81;100.00;95310.84;10530693;28;1916;-78
2021/10/29 23:21:32;;;;;;;;;;;4.90;99.90;;;3.75;100.00;95317.13;10543522;28;2174;-77
2021/10/29 23:26:35;;;;;;;;;;;4.90;99.90;;;3.71;100.00;95311.50;10546328;28;1917;-76
2021/10/29 23:31:38;;;;;;;;;;;4.80;99.90;;;3.61;100.00;95324.59;10525824;28;1935;-77
2021/10/29 23:36:41;;;;;;;;;;;4.80;99.90;;;3.51;100.00;95300.53;10528422;28;2398;-76
2021/10/29 23:41:44;;;;;;;;;;;4.80;99.90;;;3.30;100.00;95298.56;10519237;28;2066;-77
2021/10/29 23:46:47;;;;;;;;;;;4.60;99.90;;;3.21;100.00;95301.63;10517912;28;2255;-78
2021/10/29 23:51:50;;;;;;;;;;;4.50;99.90;;;3.15;100.00;95307.88;10509866;28;2424;-77
2021/10/29 23:56:52;;;;;;;;;;;4.40;99.90;;;3.25;100.00;95304.63;10514249;28;1961;-77
